Time;durP1;ratioP1;P1;durP2;ratioP2;P2;SDS_P1;SDS_P2;PMS_P1;PMS_P2;Temp;Humidity;BMP_temperature;BMP_pressure;BME280_temperature;BME280_humidity;BME280_pressure;Samples;Min_cycle;Max_cycle;Signal;HPM_P1;HPM_P2
2023/05/26 00:01:20;;;;;;;;;10.50;9.25;;;;;12.95;100.00;99011.41;4687366;28;102256;-71
2023/05/26 00:03:48;;;;;;;;;9.00;9.00;;;;;12.94;100.00;99010.56;4834964;29;103615;-71
2023/05/26 00:06:16;;;;;;;;;9.00;7.00;;;;;12.95;100.00;99014.97;4832835;29;102036;-70
2023/05/26 00:08:52;;;;;;;;;6.25;6.00;;;;;12.96;100.00;99002.22;4757982;29;104009;-70
2023/05/26 00:11:33;;;;;;;;;6.75;6.75;;;;;12.97;100.00;99009.31;4758719;29;103163;-70
2023/05/26 00:14:24;;;;;;;;;7.00;7.00;;;;;12.97;100.00;99009.31;4832538;29;101789;-70
2023/05/26 00:17:11;;;;;;;;;8.25;8.00;;;;;12.97;100.00;99012.03;4830023;29;101903;-71
2023/05/26 00:19:49;;;;;;;;;8.50;6.75;;;;;12.97;100.00;99007.44;4831110;29;103041;-70
2023/05/26 00:22:16;;;;;;;;;11.50;9.25;;;;;12.96;100.00;99011.22;4831611;29;102229;-70
2023/05/26 00:24:43;;;;;;;;;8.75;8.00;;;;;12.96;100.00;98997.63;4682808;29;102065;-70
2023/05/26 00:27:10;;;;;;;;;13.00;11.50;;;;;12.95;100.00;99008.69;4831539;29;102392;-70
2023/05/26 00:29:37;;;;;;;;;9.75;8.25;;;;;12.95;100.00;99003.25;4825631;29;104021;-71
2023/05/26 00:32:05;;;;;;;;;7.75;7.75;;;;;12.94;100.00;98998.88;4826946;29;101882;-70
2023/05/26 00:34:35;;;;;;;;;9.75;9.75;;;;;12.94;100.00;98998.88;4832454;29;101793;-70
2023/05/26 00:37:02;;;;;;;;;9.75;8.00;;;;;12.92;100.00;99000.97;4833765;29;102063;-71
2023/05/26 00:39:30;;;;;;;;;12.00;10.75;;;;;12.93;100.00;99002.63;4830340;29;104077;-70
2023/05/26 00:41:57;;;;;;;;;14.25;12.75;;;;;12.92;100.00;98990.94;4831848;29;103012;-70
2023/05/26 00:44:24;;;;;;;;;12.75;10.00;;;;;12.93;100.00;99002.63;4684133;28;102315;-70
2023/05/26 00:46:51;;;;;;;;;9.00;9.00;;;;;12.91;100.00;98993.88;4835611;29;101984;-70
2023/05/26 00:49:19;;;;;;;;;12.25;12.00;;;;;12.84;100.00;98976.72;4832129;29;104201;-72
2023/05/26 00:51:46;;;;;;;;;10.50;9.25;;;;;12.93;100.00;98991.75;4831521;29;102752;-72
2023/05/26 00:54:14;;;;;;;;;9.50;7.75;;;;;12.90;100.00;98986.75;4829773;29;102364;-72
2023/05/26 00:56:44;;;;;;;;;9.25;9.25;;;;;12.92;100.00;98990.13;4836948;29;101976;-72
2023/05/26 00:59:13;;;;;;;;;12.75;11.00;;;;;12.92;100.00;98988.22;4834770;29;104211;-72
2023/05/26 01:01:41;;;;;;;;;9.75;9.50;;;;;12.82;100.00;98965.25;4835327;29;102215;-73
2023/05/26 01:04:09;;;;;;;;;9.50;9.50;;;;;12.90;100.00;98976.75;4830756;29;102516;-72
2023/05/26 01:06:36;;;;;;;;;12.75;11.75;;;;;12.92;100.00;98985.50;4832994;29;102119;-72
2023/05/26 01:09:03;;;;;;;;;10.25;9.00;;;;;12.90;100.00;98984.03;4829528;29;104145;-72
2023/05/26 01:11:59;;;;;;;;;11.75;11.00;;;;;12.89;100.00;98982.38;4828455;29;102352;-70
2023/05/26 01:14:48;;;;;;;;;10.75;9.00;;;;;12.86;100.00;98972.78;4832105;29;103669;-71
2023/05/26 01:18:00;;;;;;;;;10.25;10.25;;;;;12.86;100.00;98978.19;4830620;29;102090;-71
2023/05/26 01:21:21;;;;;;;;;6.50;6.25;;;;;12.83;100.00;98983.22;4831957;29;104345;-71
2023/05/26 01:24:38;;;;;;;;;10.50;9.25;;;;;12.81;100.00;98983.41;4827860;29;102236;-71
2023/05/26 01:27:17;;;;;;;;;9.00;7.75;;;;;12.79;100.00;98976.50;4831098;29;102523;-71
2023/05/26 01:29:45;;;;;;;;;11.50;10.50;;;;;12.67;100.00;98954.56;4833851;29;102694;-71
2023/05/26 01:32:15;;;;;;;;;12.25;10.50;;;;;12.74;100.00;98976.31;4828423;29;103964;-71
2023/05/26 01:34:42;;;;;;;;;13.50;11.50;;;;;12.67;100.00;98964.59;4832829;29;102077;-71
2023/05/26 01:37:09;;;;;;;;;12.25;11.00;;;;;12.65;100.00;98963.97;4687697;29;102175;-71
2023/05/26 01:39:36;;;;;;;;;11.50;9.50;;;;;12.65;100.00;98972.09;4833584;29;101897;-71
2023/05/26 01:42:18;;;;;;;;;8.00;7.25;;;;;12.59;100.00;98962.91;4830656;29;104065;-71
2023/05/26 01:45:04;;;;;;;;;9.25;8.75;;;;;12.45;100.00;98940.34;4831255;29;102514;-71
2023/05/26 01:47:33;;;;;;;;;12.25;11.00;;;;;12.39;100.00;98941.16;4828185;29;102605;-71
2023/05/26 01:50:02;;;;;;;;;14.00;14.00;;;;;12.48;100.00;98950.75;4834914;29;101986;-71
2023/05/26 01:52:31;;;;;;;;;10.25;9.00;;;;;12.41;100.00;98951.81;4828566;29;104004;-71
2023/05/26 01:55:01;;;;;;;;;7.50;7.25;;;;;12.31;100.00;98956.75;4831922;29;101946;-71
2023/05/26 01:57:30;;;;;;;;;7.25;7.25;;;;;12.24;100.00;98959.47;4830200;29;102792;-71
2023/05/26 01:59:57;;;;;;;;;5.50;4.50;;;;;12.17;100.00;98955.03;4830627;29;101915;-72
2023/05/26 02:02:24;;;;;;;;;2.75;2.75;;;;;12.12;100.00;98962.94;4832934;29;103371;-71
2023/05/26 02:04:51;;;;;;;;;8.75;7.50;;;;;12.06;100.00;98956.47;4830492;29;101893;-71
2023/05/26 02:07:19;;;;;;;;;12.00;8.75;;;;;12.01;100.00;98953.53;4829272;29;101872;-71
2023/05/26 02:09:45;;;;;;;;;8.75;8.25;;;;;11.99;100.00;98963.72;4833011;29;102082;-72
2023/05/26 02:12:13;;;;;;;;;10.75;9.00;;;;;11.91;100.00;98953.06;4827050;29;104042;-71
2023/05/26 02:14:40;;;;;;;;;9.75;9.25;;;;;11.89;100.00;98966.78;4828053;29;101967;-71
2023/05/26 02:17:07;;;;;;;;;5.75;5.00;;;;;11.84;100.00;98952.19;4828938;29;102051;-71
2023/05/26 02:19:34;;;;;;;;;5.75;5.75;;;;;11.78;100.00;98955.69;4829892;29;103280;-71
2023/05/26 02:22:01;;;;;;;;;12.50;12.25;;;;;11.72;100.00;98948.31;4829857;29;104086;-71
2023/05/26 02:24:28;;;;;;;;;11.75;11.50;;;;;11.67;100.00;98940.78;4824586;29;103076;-71
2023/05/26 02:26:55;;;;;;;;;9.25;9.25;;;;;11.60;100.00;98943.47;4829434;29;101929;-71
2023/05/26 02:29:22;;;;;;;;;12.25;11.75;;;;;11.58;100.00;98940.13;4830722;29;102120;-71
2023/05/26 02:31:49;;;;;;;;;10.25;9.00;;;;;11.53;100.00;98939.88;4826342;29;104080;-71
2023/05/26 02:34:16;;;;;;;;;7.00;6.75;;;;;11.48;100.00;98934.22;4828859;29;103005;-71
2023/05/26 02:36:44;;;;;;;;;13.00;11.25;;;;;11.47;100.00;98948.81;4830577;29;102165;-71
2023/05/26 02:39:11;;;;;;;;;7.75;7.75;;;;;11.43;100.00;98952.13;4831873;29;102084;-71
2023/05/26 02:41:38;;;;;;;;;11.75;9.00;;;;;11.37;100.00;98948.31;4829271;29;105399;-72
2023/05/26 02:44:05;;;;;;;;;11.50;11.50;;;;;11.29;100.00;98943.06;4829824;29;103069;-71
2023/05/26 02:46:32;;;;;;;;;14.50;11.50;;;;;11.23;100.00;98948.41;4829934;29;102993;-71
2023/05/26 02:49:02;;;;;;;;;8.00;7.75;;;;;11.20;100.00;98946.97;4832520;29;102004;-70
2023/05/26 03:02:38;;;;;;;;;9.00;7.00;;;;;11.04;100.00;98960.75;4835293;29;101908;-70
2023/05/26 03:05:06;;;;;;;;;4.00;3.50;;;;;11.01;100.00;98962.00;4836223;29;104085;-71
2023/05/26 03:07:33;;;;;;;;;10.25;7.75;;;;;11.01;100.00;98956.59;4831420;29;101969;-70
2023/05/26 03:10:00;;;;;;;;;10.50;10.00;;;;;11.03;100.00;98967.22;4830772;29;102197;-70
2023/05/26 03:12:27;;;;;;;;;12.00;12.00;;;;;11.03;100.00;98959.91;4833725;29;103187;-70
2023/05/26 03:14:54;;;;;;;;;11.75;10.75;;;;;11.06;100.00;98958.69;4834891;29;104036;-70
2023/05/26 03:17:21;;;;;;;;;13.00;12.25;;;;;11.10;100.00;98959.97;4833011;29;102244;-70
2023/05/26 03:19:48;;;;;;;;;4.75;4.75;;;;;11.09;100.00;98955.59;4831753;29;102406;-70
2023/05/26 03:22:15;;;;;;;;;11.25;11.25;;;;;11.14;100.00;98958.56;4832265;29;101965;-70
2023/05/26 03:25:02;;;;;;;;;6.00;5.00;;;;;11.14;100.00;98956.69;4832737;29;105281;-70
2023/05/26 03:27:30;;;;;;;;;11.00;10.50;;;;;11.18;100.00;98963.38;4834512;29;101908;-70
2023/05/26 03:29:57;;;;;;;;;11.75;11.00;;;;;11.25;100.00;98968.03;4832757;29;103561;-70
2023/05/26 03:32:24;;;;;;;;;12.75;10.50;;;;;11.31;100.00;98961.81;4833099;29;103517;-70
2023/05/26 03:34:51;;;;;;;;;9.75;9.50;;;;;11.34;100.00;98956.00;4831730;29;104154;-70
2023/05/26 03:37:18;;;;;;;;;9.00;8.50;;;;;11.34;100.00;98961.44;4830520;29;102035;-70
2023/05/26 03:39:45;;;;;;;;;14.00;13.25;;;;;11.41;100.00;98957.72;4831877;29;103116;-70
2023/05/26 03:42:12;;;;;;;;;16.50;15.00;;;;;11.47;100.00;98951.53;4834688;29;102361;-70
2023/05/26 03:44:39;;;;;;;;;11.50;9.25;;;;;11.54;100.00;98949.69;4833415;29;104199;-70
2023/05/26 03:47:06;;;;;;;;;15.50;14.50;;;;;11.61;100.00;98953.28;4835164;29;101914;-70
2023/05/26 03:49:33;;;;;;;;;12.50;12.00;;;;;11.69;100.00;98944.16;4828491;29;102266;-70
2023/05/26 03:52:00;;;;;;;;;14.75;12.75;;;;;11.79;100.00;98955.50;4830937;29;101983;-72
2023/05/26 03:54:27;;;;;;;;;13.00;12.00;;;;;11.86;100.00;98950.09;4832984;29;104086;-71
2023/05/26 03:56:55;;;;;;;;;14.50;13.00;;;;;11.97;100.00;98952.25;4831700;29;102828;-70
2023/05/26 03:59:22;;;;;;;;;15.75;14.75;;;;;12.02;100.00;98933.53;4794064;29;102436;-70
2023/05/26 04:01:49;;;;;;;;;7.25;7.00;;;;;12.10;100.00;98955.03;4814140;28;102389;-70
2023/05/26 04:04:16;;;;;;;;;21.50;18.00;;;;;12.17;100.00;98945.03;4814439;28;104055;-72
2023/05/26 04:06:43;;;;;;;;;17.50;15.50;;;;;12.28;100.00;98946.34;4815346;28;102802;-70
2023/05/26 04:09:10;;;;;;;;;16.75;15.50;;;;;12.26;100.00;98935.69;4820080;28;102292;-70
2023/05/26 04:11:37;;;;;;;;;21.50;18.25;;;;;12.42;100.00;98954.31;4821558;28;102330;-70
2023/05/26 04:14:06;;;;;;;;;23.00;21.25;;;;;12.48;100.00;98949.94;4819706;28;104026;-70
2023/05/26 04:16:33;;;;;;;;;20.50;20.00;;;;;12.56;100.00;98947.06;4817537;29;102027;-70
2023/05/26 04:19:00;;;;;;;;;16.25;14.25;;;;;12.64;100.00;98946.00;4819428;29;101980;-71
2023/05/26 04:21:28;;;;;;;;;23.50;20.50;;;;;12.70;100.00;98959.56;4821602;28;101986;-71
2023/05/26 04:23:55;;;;;;;;;15.75;14.25;;;;;12.78;100.00;98956.69;4815291;29;104014;-71
2023/05/26 04:26:24;;;;;;;;;19.75;18.00;;;;;12.84;100.00;98958.56;4819016;29;103684;-70
2023/05/26 04:28:52;;;;;;;;;14.00;12.75;;;;;12.92;100.00;98960.25;4818045;29;102247;-70
2023/05/26 04:31:20;;;;;;;;;14.75;13.25;;;;;12.99;100.00;98961.09;4821227;29;102230;-71
2023/05/26 04:33:48;;;;;;;;;13.00;12.25;;;;;13.03;100.00;98965.06;4820390;28;104173;-71
2023/05/26 04:36:16;;;;;;;;;15.25;13.25;;;;;13.08;100.00;98967.97;4822079;28;104194;-71
2023/05/26 04:38:45;;;;;;;;;14.00;14.00;;;;;13.08;100.00;98967.97;4821222;28;101897;-71
2023/05/26 04:41:12;;;;;;;;;11.75;11.00;;;;;13.12;100.00;98966.56;4821327;28;102009;-71
2023/05/26 04:43:40;;;;;;;;;12.25;12.25;;;;;13.15;100.00;98974.28;4822639;28;104023;-71
2023/05/26 04:46:10;;;;;;;;;14.00;12.25;;;;;13.13;100.00;98976.38;4816847;28;102910;-71
2023/05/26 04:48:38;;;;;;;;;14.50;13.00;;;;;13.19;100.00;98970.09;4820802;28;103540;-71
2023/05/26 04:51:08;;;;;;;;;14.50;14.50;;;;;13.22;100.00;98972.41;4821824;28;107275;-71
2023/05/26 04:53:35;;;;;;;;;18.00;16.50;;;;;13.28;100.00;98974.28;4820363;29;104002;-71
2023/05/26 04:56:03;;;;;;;;;13.50;12.00;;;;;13.24;100.00;98962.16;4824070;28;103176;-71
2023/05/26 04:58:32;;;;;;;;;10.00;8.50;;;;;13.34;100.00;98975.31;4821243;28;102328;-71
2023/05/26 05:01:02;;;;;;;;;12.00;12.00;;;;;13.37;100.00;98983.88;4819623;29;102013;-71
2023/05/26 05:03:34;;;;;;;;;8.75;8.75;;;;;13.38;100.00;98971.97;4823193;28;111104;-71
2023/05/26 05:06:01;;;;;;;;;12.25;10.75;;;;;13.43;100.00;98978.66;4821139;28;103075;-72
2023/05/26 05:08:28;;;;;;;;;10.75;8.50;;;;;13.46;100.00;98975.53;4822060;28;101941;-69
2023/05/26 05:10:55;;;;;;;;;10.75;10.50;;;;;13.46;100.00;98976.38;4821727;28;102261;-70
2023/05/26 05:13:22;;;;;;;;;8.75;8.75;;;;;13.49;100.00;98975.13;4821112;28;104024;-70
2023/05/26 05:15:49;;;;;;;;;10.25;9.25;;;;;13.49;100.00;98970.53;4821499;29;102614;-70
2023/05/26 05:18:16;;;;;;;;;5.75;5.50;;;;;13.54;100.00;98972.59;4821344;29;101918;-70
2023/05/26 05:20:43;;;;;;;;;17.00;14.25;;;;;13.55;100.00;98964.25;4822719;29;102321;-70
2023/05/26 05:23:11;;;;;;;;;8.75;7.50;;;;;13.61;100.00;98976.13;4821174;28;104152;-70
2023/05/26 05:25:38;;;;;;;;;16.00;15.00;;;;;13.61;100.00;98974.25;4822546;28;102043;-69
2023/05/26 05:28:05;;;;;;;;;12.00;11.50;;;;;13.69;100.00;98971.31;4824355;29;101881;-71
2023/05/26 05:30:32;;;;;;;;;8.50;8.50;;;;;13.75;100.00;98970.47;4822849;29;102261;-71
2023/05/26 05:32:59;;;;;;;;;6.25;5.00;;;;;13.84;99.93;98968.34;4819112;29;108803;-70
2023/05/26 05:35:26;;;;;;;;;17.75;15.25;;;;;13.89;99.38;98970.44;4818949;28;102020;-70
2023/05/26 05:37:57;;;;;;;;;18.00;15.00;;;;;13.87;99.97;98967.91;4822299;29;102168;-70
2023/05/26 05:40:25;;;;;;;;;15.25;13.25;;;;;13.96;100.00;98965.84;4824362;28;102319;-70
2023/05/26 05:42:52;;;;;;;;;29.25;26.75;;;;;13.94;98.77;98968.75;4821125;29;103746;-71
2023/05/26 05:45:19;;;;;;;;;30.50;25.50;;;;;13.97;99.15;98973.75;4820518;28;102376;-70
2023/05/26 05:47:46;;;;;;;;;24.25;21.00;;;;;14.12;99.69;98971.63;4821506;29;101900;-70
2023/05/26 05:50:13;;;;;;;;;27.25;20.25;;;;;14.24;98.99;98969.91;4823105;28;102437;-70
2023/05/26 05:52:40;;;;;;;;;18.50;17.50;;;;;14.54;97.34;98983.00;4823090;29;104092;-70
2023/05/26 05:55:08;;;;;;;;;17.00;16.25;;;;;14.63;94.97;98978.97;4823566;28;102182;-70
2023/05/26 05:57:35;;;;;;;;;18.00;16.50;;;;;14.93;94.03;98990.94;4819351;28;101987;-70
2023/05/26 06:00:07;;;;;;;;;28.25;27.25;;;;;15.11;96.13;98995.63;4826837;28;101952;-71
2023/05/26 06:02:38;;;;;;;;;17.50;16.25;;;;;15.35;92.48;98989.38;4820871;28;108730;-69
2023/05/26 06:05:05;;;;;;;;;18.50;15.25;;;;;15.47;90.21;98997.66;4819482;28;102496;-69
2023/05/26 06:07:33;;;;;;;;;13.75;11.00;;;;;15.52;91.72;98992.41;4822894;29;102467;-71
2023/05/26 06:10:00;;;;;;;;;11.50;10.75;;;;;15.55;91.15;98986.50;4819927;29;102273;-70
2023/05/26 06:12:26;;;;;;;;;20.50;19.50;;;;;15.53;91.08;98994.91;4822746;29;104126;-71
2023/05/26 06:14:53;;;;;;;;;39.75;33.00;;;;;15.47;90.38;98992.19;4817793;29;102014;-71
2023/05/26 06:17:20;;;;;;;;;43.50;37.00;;;;;15.26;91.84;99004.31;4816382;29;102012;-71
2023/05/26 06:19:47;;;;;;;;;38.50;34.00;;;;;15.31;91.12;99000.94;4819026;29;102523;-70
2023/05/26 06:22:14;;;;;;;;;32.50;25.75;;;;;15.44;91.21;99009.84;4820874;28;104092;-72
2023/05/26 06:24:41;;;;;;;;;23.25;21.75;;;;;15.42;91.16;99005.66;4821459;29;102112;-71
2023/05/26 06:27:10;;;;;;;;;22.25;21.25;;;;;15.59;91.01;98996.72;4820199;28;101961;-71
2023/05/26 06:29:38;;;;;;;;;12.25;11.75;;;;;15.76;90.51;99002.44;4821793;29;102011;-70
2023/05/26 06:32:05;;;;;;;;;13.50;12.50;;;;;15.84;89.42;99002.16;4820537;28;104017;-69
2023/05/26 06:34:32;;;;;;;;;27.50;25.75;;;;;15.79;89.04;99004.72;4822587;28;102547;-69
2023/05/26 06:36:59;;;;;;;;;23.00;21.25;;;;;15.99;88.67;98993.59;4823133;28;103766;-71
2023/05/26 06:39:26;;;;;;;;;23.00;22.00;;;;;16.30;88.28;98993.44;4826281;29;101953;-71
2023/05/26 06:41:53;;;;;;;;;28.50;24.75;;;;;16.29;88.50;98993.69;4822792;28;104199;-72
2023/05/26 06:44:20;;;;;;;;;21.75;19.00;;;;;16.42;85.94;98999.81;4823377;29;102249;-73
2023/05/26 06:46:47;;;;;;;;;21.25;21.00;;;;;16.47;85.68;98994.53;4820923;29;101833;-72
2023/05/26 06:49:14;;;;;;;;;21.75;21.75;;;;;16.96;85.33;98992.63;4819943;28;102914;-72
2023/05/26 06:51:41;;;;;;;;;37.00;31.25;;;;;17.40;82.86;98999.50;4823062;28;104039;-72
2023/05/26 06:54:08;;;;;;;;;45.25;36.00;;;;;17.34;81.89;98998.53;4824117;28;101954;-71
2023/05/26 06:56:35;;;;;;;;;30.00;26.00;;;;;18.10;81.13;98994.09;4826934;29;101985;-72
2023/05/26 06:59:03;;;;;;;;;31.25;25.75;;;;;18.63;76.50;98991.97;4828209;29;102289;-72
2023/05/26 07:01:30;;;;;;;;;20.75;19.75;;;;;19.16;75.20;98999.84;4824365;29;108845;-72
2023/05/26 07:03:57;;;;;;;;;21.50;20.00;;;;;19.44;74.24;98989.94;4822650;28;102186;-71
2023/05/26 07:06:24;;;;;;;;;27.50;25.00;;;;;19.42;73.13;98992.03;4819922;28;101981;-72
2023/05/26 07:09:05;;;;;;;;;33.75;31.00;;;;;19.26;73.08;99001.09;4828504;28;102700;-72
2023/05/26 07:11:32;;;;;;;;;36.75;33.00;;;;;19.19;73.55;98995.75;4822508;29;108909;-71
2023/05/26 07:13:59;;;;;;;;;46.25;36.00;;;;;18.64;78.42;99001.03;4823514;28;101963;-71
2023/05/26 07:16:26;;;;;;;;;32.25;30.50;;;;;18.89;75.97;99003.41;4823201;29;102158;-71
2023/05/26 07:18:53;;;;;;;;;29.50;27.00;;;;;18.91;75.98;99002.09;4823491;29;102846;-70
2023/05/26 07:21:21;;;;;;;;;31.00;28.00;;;;;18.87;77.25;99000.91;4823711;29;104602;-71
2023/05/26 07:23:50;;;;;;;;;38.00;32.50;;;;;19.11;75.29;99001.63;4821803;28;102663;-70
2023/05/26 07:26:17;;;;;;;;;21.25;21.25;;;;;19.25;73.58;98999.44;4819315;28;102217;-70
2023/05/26 07:28:44;;;;;;;;;20.25;19.50;;;;;19.69;74.22;98995.81;4824693;28;103022;-71
2023/05/26 07:31:11;;;;;;;;;20.33;19.00;;;;;20.07;74.28;98997.78;4819438;28;104090;-71
2023/05/26 07:33:38;;;;;;;;;20.67;17.00;;;;;20.27;69.87;98995.31;4818471;28;102089;-70
2023/05/26 07:36:05;;;;;;;;;27.00;24.00;;;;;20.38;72.71;98994.41;4822454;29;102846;-69
2023/05/26 07:38:33;;;;;;;;;19.67;17.33;;;;;20.57;69.99;98997.66;4824980;28;101995;-70
2023/05/26 07:41:04;;;;;;;;;23.00;22.50;;;;;20.27;71.30;98995.31;4824478;28;104129;-70
2023/05/26 07:43:33;;;;;;;;;19.33;18.33;;;;;20.46;69.42;99004.09;4821073;29;103042;-72
2023/05/26 07:46:00;;;;;;;;;22.67;20.00;;;;;20.48;71.03;98993.69;4822119;29;105382;-70
2023/05/26 07:48:27;;;;;;;;;13.00;13.00;;;;;20.43;69.77;99002.72;4821096;29;102039;-71
2023/05/26 07:50:54;;;;;;;;;23.00;23.00;;;;;20.01;70.35;98999.59;4822505;28;104044;-71
2023/05/26 07:53:22;;;;;;;;;22.33;21.00;;;;;19.58;72.05;99002.22;4824100;28;102120;-71
2023/05/26 07:55:49;;;;;;;;;32.00;30.50;;;;;18.96;75.78;99004.09;4822349;28;102380;-71
2023/05/26 07:58:17;;;;;;;;;25.25;24.25;;;;;19.20;77.71;99005.66;4824804;28;102224;-71
2023/05/26 08:00:44;;;;;;;;;29.50;24.50;;;;;19.68;75.76;98993.34;4817822;28;104070;-71
2023/05/26 08:03:11;;;;;;;;;24.00;23.25;;;;;19.75;75.29;98996.72;4821685;28;102036;-71
2023/05/26 08:05:39;;;;;;;;;30.00;26.00;;;;;19.69;72.46;98992.22;4818304;28;102485;-72
2023/05/26 08:08:06;;;;;;;;;26.50;25.00;;;;;20.01;73.45;98991.38;4821749;28;102020;-70
2023/05/26 08:10:33;;;;;;;;;24.00;21.25;;;;;20.29;72.23;98992.31;4825420;29;108944;-71
2023/05/26 08:13:00;;;;;;;;;32.50;28.50;;;;;19.94;71.18;98993.47;4820959;28;101978;-71
2023/05/26 08:15:27;;;;;;;;;30.25;28.25;;;;;19.72;72.28;99000.00;4821432;28;102153;-71
2023/05/26 08:17:54;;;;;;;;;24.50;24.25;;;;;19.55;74.58;98995.31;4822812;29;102303;-71
2023/05/26 08:20:21;;;;;;;;;26.25;24.25;;;;;19.43;74.03;99000.06;4821195;29;104078;-72
2023/05/26 08:22:48;;;;;;;;;22.00;21.00;;;;;19.55;73.12;98962.41;4821493;29;102584;-71
2023/05/26 08:25:15;;;;;;;;;25.00;23.33;;;;;19.58;74.37;99003.06;4821773;28;102499;-71
2023/05/26 08:27:42;;;;;;;;;24.75;24.25;;;;;19.88;73.08;99002.72;4825644;29;102313;-70
2023/05/26 08:30:09;;;;;;;;;21.00;19.67;;;;;19.80;72.70;98997.66;4821334;28;104023;-70
2023/05/26 08:32:36;;;;;;;;;21.00;20.33;;;;;19.81;73.96;98999.28;4824597;28;102250;-70
2023/05/26 08:35:04;;;;;;;;;29.25;27.00;;;;;19.88;72.58;98996.38;4822381;29;102033;-70
2023/05/26 08:37:31;;;;;;;;;28.75;27.25;;;;;19.68;73.45;98996.09;4823715;28;101987;-70
2023/05/26 08:39:58;;;;;;;;;26.33;24.67;;;;;19.92;72.84;99000.28;4819799;29;104109;-70
2023/05/26 08:42:30;;;;;;;;;23.50;23.25;;;;;20.00;73.06;99003.44;4823302;28;101931;-70
2023/05/26 08:45:03;;;;;;;;;22.75;21.25;;;;;20.22;71.64;99003.47;4820752;29;102255;-70
2023/05/26 08:47:40;;;;;;;;;18.33;18.00;;;;;20.53;70.05;98984.69;4820588;28;101991;-70
2023/05/26 08:50:08;;;;;;;;;22.00;21.33;;;;;20.41;70.08;98995.78;4818545;29;108701;-72
2023/05/26 08:52:37;;;;;;;;;21.67;20.67;;;;;20.42;69.50;98998.28;4822842;29;102259;-71
2023/05/26 08:55:05;;;;;;;;;23.33;22.33;;;;;20.33;69.82;98993.50;4824585;29;101941;-70
2023/05/26 08:57:33;;;;;;;;;25.33;23.00;;;;;20.10;69.67;98996.44;4822967;29;102309;-70
2023/05/26 09:00:03;;;;;;;;;17.33;17.00;;;;;20.29;69.08;99004.13;4823185;28;104062;-70
2023/05/26 09:02:30;;;;;;;;;17.67;16.67;;;;;20.38;69.70;98999.88;4822749;28;102217;-71
2023/05/26 09:04:58;;;;;;;;;20.33;19.67;;;;;20.04;70.43;98996.34;4819826;29;102394;-70
2023/05/26 09:07:25;;;;;;;;;18.67;18.33;;;;;20.31;68.26;98999.22;4822854;29;102874;-70
2023/05/26 09:10:21;;;;;;;;;18.67;17.33;;;;;20.19;66.32;98997.66;4818187;28;104088;-71
2023/05/26 09:12:48;;;;;;;;;14.33;14.00;;;;;20.27;66.15;98997.22;4820666;29;102458;-70
2023/05/26 09:15:21;;;;;;;;;21.33;19.00;;;;;19.99;69.82;98996.28;4821884;29;102348;-71
2023/05/26 09:17:48;;;;;;;;;13.00;13.00;;;;;20.00;68.01;98988.88;4821305;29;102161;-71
2023/05/26 09:20:16;;;;;;;;;17.67;17.33;;;;;19.94;68.18;98984.41;4822165;28;104037;-71
2023/05/26 09:22:45;;;;;;;;;17.67;17.00;;;;;20.02;69.97;98992.22;4822847;29;102231;-71
2023/05/26 09:25:16;;;;;;;;;23.33;20.33;;;;;19.90;71.60;99005.22;4822218;28;101987;-71
2023/05/26 09:27:47;;;;;;;;;23.00;19.67;;;;;19.57;72.18;99012.38;4819899;28;102084;-71
2023/05/26 09:30:14;;;;;;;;;39.25;35.00;;;;;19.47;73.26;99008.63;4821619;28;104151;-70
2023/05/26 09:32:41;;;;;;;;;24.25;22.75;;;;;19.56;72.18;98999.72;4820502;28;102300;-70
2023/05/26 09:35:08;;;;;;;;;16.00;16.00;;;;;19.68;72.83;98990.59;4819783;28;101940;-70
2023/05/26 09:37:35;;;;;;;;;20.00;20.00;;;;;19.71;73.45;99004.63;4823084;28;102014;-71
2023/05/26 09:40:14;;;;;;;;;18.33;17.33;;;;;19.79;71.14;98997.88;4819566;29;108897;-71
2023/05/26 09:42:52;;;;;;;;;25.33;22.00;;;;;19.52;71.29;98995.81;4818771;28;102310;-71
2023/05/26 09:45:19;;;;;;;;;17.00;15.67;;;;;19.63;68.29;98987.78;4819126;29;102338;-70
2023/05/26 09:47:57;;;;;;;;;17.00;16.00;;;;;19.89;68.27;98996.16;4823708;28;102339;-70
2023/05/26 09:50:24;;;;;;;;;15.33;15.33;;;;;20.18;67.16;98994.06;4816604;29;104224;-71
2023/05/26 09:52:51;;;;;;;;;21.00;19.67;;;;;20.06;65.69;98998.84;4819978;28;102385;-70
2023/05/26 09:55:18;;;;;;;;;19.67;19.33;;;;;20.09;65.04;98987.34;4815905;29;102406;-70
2023/05/26 09:57:46;;;;;;;;;18.67;18.33;;;;;20.05;65.08;98994.44;4814883;29;102273;-71
2023/05/26 10:00:17;;;;;;;;;23.67;20.67;;;;;20.23;63.96;98988.66;4818151;29;104093;-70
2023/05/26 10:02:46;;;;;;;;;20.67;14.00;;;;;20.63;63.13;98982.03;4817418;28;102436;-71
2023/05/26 10:05:16;;;;;;;;;19.33;18.00;;;;;20.21;63.71;98990.84;4816294;28;102418;-71
2023/05/26 10:07:45;;;;;;;;;20.00;18.33;;;;;19.63;66.43;99001.50;4823258;28;102193;-71
2023/05/26 10:10:13;;;;;;;;;18.00;16.67;;;;;19.54;65.00;98999.13;4817885;28;104058;-73
2023/05/26 10:12:42;;;;;;;;;18.67;17.67;;;;;19.39;67.85;99004.34;4820434;28;102315;-70
2023/05/26 10:15:10;;;;;;;;;16.33;16.33;;;;;19.36;68.32;98987.56;4821874;28;102217;-70
2023/05/26 10:17:38;;;;;;;;;19.67;18.00;;;;;19.18;69.23;98989.44;4817067;29;102337;-70
2023/05/26 10:20:07;;;;;;;;;20.25;20.00;;;;;19.20;67.27;99005.66;4820617;28;104130;-72
2023/05/26 10:22:54;;;;;;;;;21.00;19.00;;;;;19.18;67.22;99013.31;4819976;29;101890;-70
2023/05/26 10:25:31;;;;;;;;;16.67;14.00;;;;;19.15;65.62;99009.13;4818836;29;104018;-70
2023/05/26 10:28:23;;;;;;;;;14.33;14.00;;;;;19.66;68.64;99009.22;4820940;28;102232;-71
2023/05/26 10:31:00;;;;;;;;;18.33;17.33;;;;;19.72;63.63;99005.47;4813334;29;108647;-70
2023/05/26 10:33:57;;;;;;;;;23.67;16.67;;;;;20.41;64.05;99004.88;4820110;29;102138;-72
2023/05/26 10:36:24;;;;;;;;;18.00;18.00;;;;;20.55;62.47;99001.72;4809340;29;102325;-70
2023/05/26 10:38:53;;;;;;;;;12.00;11.00;;;;;20.67;58.20;98999.72;4816372;28;101922;-70
2023/05/26 10:41:40;;;;;;;;;7.00;5.67;;;;;20.76;61.25;99003.63;4820408;28;104041;-70
2023/05/26 10:44:40;;;;;;;;;22.33;19.00;;;;;20.49;61.30;98995.34;4817684;29;102354;-71
2023/05/26 10:47:14;;;;;;;;;20.33;18.67;;;;;20.46;63.16;98995.84;4817718;29;102419;-72
2023/05/26 10:49:42;;;;;;;;;15.67;15.67;;;;;20.78;58.61;99002.31;4819494;29;101956;-69
2023/05/26 10:52:13;;;;;;;;;17.00;15.67;;;;;20.72;59.64;98986.84;4819511;29;104041;-70
2023/05/26 10:54:47;;;;;;;;;20.67;20.33;;;;;20.81;60.86;98998.19;4820158;29;102016;-69
2023/05/26 10:57:34;;;;;;;;;22.00;18.67;;;;;20.55;57.88;98996.25;4820597;28;101950;-70
2023/05/26 11:00:20;;;;;;;;;18.33;18.33;;;;;20.59;60.27;98998.22;4819742;29;102116;-70
2023/05/26 11:02:47;;;;;;;;;17.00;15.33;;;;;20.92;59.69;98987.06;4818229;28;108963;-70
2023/05/26 11:05:30;;;;;;;;;19.00;17.33;;;;;20.93;59.88;98996.16;4821146;28;102130;-72
2023/05/26 11:07:58;;;;;;;;;20.33;19.33;;;;;20.49;60.06;98984.34;4819180;28;102911;-71
2023/05/26 11:10:25;;;;;;;;;19.67;19.67;;;;;20.30;61.61;98950.91;4821499;29;102003;-71
2023/05/26 11:12:57;;;;;;;;;25.75;23.75;;;;;20.20;61.83;98993.84;4803975;28;104144;-71
2023/05/26 11:15:28;;;;;;;;;19.33;18.33;;;;;20.37;62.27;98995.47;4820892;29;101930;-70
2023/05/26 11:18:08;;;;;;;;;21.67;21.00;;;;;20.44;62.02;98987.88;4822048;28;102699;-70
2023/05/26 11:20:36;;;;;;;;;17.67;17.00;;;;;20.53;62.96;98979.19;4822127;28;102152;-70
2023/05/26 11:23:03;;;;;;;;;25.00;23.33;;;;;20.46;63.16;98982.97;4824808;29;109836;-70
2023/05/26 11:25:31;;;;;;;;;21.67;19.33;;;;;20.03;61.69;98980.16;4821513;29;102082;-71
2023/05/26 11:27:58;;;;;;;;;22.67;22.00;;;;;20.29;64.00;98975.84;4824944;28;102356;-71
2023/05/26 11:30:34;;;;;;;;;17.33;17.00;;;;;20.67;62.68;98984.03;4821851;28;101989;-71
2023/05/26 11:33:12;;;;;;;;;19.00;18.33;;;;;20.94;61.66;98975.81;4820918;29;104145;-70